Time;durP1;ratioP1;P1;durP2;ratioP2;P2;SDS_P1;SDS_P2;PMS_P1;PMS_P2;Temp;Humidity;BMP_temperature;BMP_pressure;BME280_temperature;BME280_humidity;BME280_pressure;Samples;Min_cycle;Max_cycle;Signal;HPM_P1;HPM_P2
2021/09/21 00:00:06;;;;;;;8.83;5.77;;;11.80;99.90;;;;;;5035503;28;20209;-61
2021/09/21 00:02:33;;;;;;;6.57;5.30;;;11.80;99.90;;;;;;5035470;28;20214;-62
2021/09/21 00:04:59;;;;;;;6.23;5.00;;;11.80;99.90;;;;;;5035083;28;20730;-62
2021/09/21 00:07:26;;;;;;;11.10;5.30;;;11.80;99.90;;;;;;5035040;28;20235;-62
2021/09/21 00:09:54;;;;;;;7.27;5.00;;;11.90;99.90;;;;;;5035469;28;20237;-62
2021/09/21 00:12:20;;;;;;;10.33;5.43;;;11.90;99.90;;;;;;5035258;28;20280;-62
2021/09/21 00:14:47;;;;;;;6.77;4.73;;;11.80;99.90;;;;;;5034938;28;20280;-62
2021/09/21 00:17:14;;;;;;;11.50;5.47;;;11.90;99.90;;;;;;5034984;28;20230;-61
2021/09/21 00:19:40;;;;;;;7.30;4.97;;;11.90;99.90;;;;;;5034939;28;20211;-62
2021/09/21 00:22:07;;;;;;;6.77;5.10;;;11.90;99.90;;;;;;5035268;28;20211;-62
2021/09/21 00:24:34;;;;;;;6.17;4.73;;;11.90;99.90;;;;;;5034581;28;20692;-62
2021/09/21 00:27:02;;;;;;;8.50;5.37;;;11.90;99.90;;;;;;5035048;28;20223;-62
2021/09/21 00:29:29;;;;;;;7.00;4.77;;;11.90;99.90;;;;;;5034929;28;20626;-62
2021/09/21 00:32:00;;;;;;;11.33;5.50;;;11.90;99.90;;;;;;5034926;28;20206;-62
2021/09/21 00:34:35;;;;;;;9.03;5.00;;;12.00;99.90;;;;;;5034658;28;20297;-61
2021/09/21 00:37:02;;;;;;;6.33;4.63;;;11.90;99.90;;;;;;5034922;28;20291;-62
2021/09/21 00:39:29;;;;;;;9.63;5.47;;;11.90;99.90;;;;;;5034761;28;20241;-62
2021/09/21 00:41:57;;;;;;;8.80;5.40;;;11.80;99.90;;;;;;5034736;28;20214;-62
2021/09/21 00:44:25;;;;;;;8.63;5.90;;;11.80;99.90;;;;;;5034706;28;20210;-62
2021/09/21 00:46:52;;;;;;;6.80;5.40;;;11.70;99.90;;;;;;5034132;28;20226;-62
2021/09/21 00:49:19;;;;;;;9.00;5.33;;;11.70;99.90;;;;;;5034583;28;20206;-62
2021/09/21 00:51:46;;;;;;;6.93;5.33;;;11.70;99.90;;;;;;5034943;28;20210;-61
2021/09/21 00:54:12;;;;;;;8.83;5.63;;;11.70;99.90;;;;;;5034748;28;20206;-61
2021/09/21 00:56:39;;;;;;;7.53;5.57;;;11.60;99.90;;;;;;5033910;28;20238;-61
2021/09/21 00:59:06;;;;;;;7.33;6.00;;;11.60;99.90;;;;;;5034354;28;20260;-61
2021/09/21 01:01:34;;;;;;;8.47;5.67;;;11.50;1.00;;;;;;5033302;28;20623;-61
2021/09/21 01:04:02;;;;;;;7.80;5.67;;;11.50;1.00;;;;;;5034581;28;20206;-61
2021/09/21 01:06:28;;;;;;;7.73;5.80;;;11.50;1.00;;;;;;5033689;28;20234;-61
2021/09/21 01:08:55;;;;;;;8.63;5.67;;;11.50;1.00;;;;;;5034582;28;20260;-61
2021/09/21 01:11:22;;;;;;;9.10;6.00;;;11.50;1.00;;;;;;5035385;28;20616;-61
2021/09/21 01:13:49;;;;;;;9.83;5.77;;;11.50;1.00;;;;;;5034362;28;20202;-61
2021/09/21 01:16:15;;;;;;;8.83;5.50;;;11.50;1.00;;;;;;5033699;28;20232;-61
2021/09/21 01:18:44;;;;;;;7.90;6.03;;;11.40;1.00;;;;;;5034675;28;20226;-61
2021/09/21 01:21:13;;;;;;;10.53;6.33;;;11.40;1.00;;;;;;5038325;28;20202;-61
2021/09/21 01:23:50;;;;;;;12.20;5.83;;;11.50;1.00;;;;;;5038168;28;20206;-62
2021/09/21 01:26:18;;;;;;;6.97;5.53;;;11.40;1.00;;;;;;5033455;28;20210;-62
2021/09/21 01:28:44;;;;;;;8.80;6.23;;;11.50;1.00;;;;;;5033697;28;20213;-62
2021/09/21 01:31:11;;;;;;;8.37;5.83;;;11.50;1.00;;;;;;5033971;28;20633;-62
2021/09/21 01:33:38;;;;;;;12.60;6.17;;;11.50;1.00;;;;;;5033804;28;20206;-62
2021/09/21 01:36:05;;;;;;;7.50;5.33;;;11.60;1.00;;;;;;5033339;28;20214;-62
2021/09/21 01:38:32;;;;;;;8.10;5.73;;;11.60;1.00;;;;;;5033695;28;20230;-61
2021/09/21 01:41:00;;;;;;;8.60;5.60;;;11.60;1.00;;;;;;5033581;28;20260;-62
2021/09/21 01:43:27;;;;;;;6.50;5.80;;;11.50;1.00;;;;;;5033676;28;20264;-62
2021/09/21 01:45:54;;;;;;;10.23;6.27;;;11.50;1.00;;;;;;5033042;28;20260;-61
2021/09/21 01:48:20;;;;;;;8.53;6.00;;;11.40;1.00;;;;;;5033464;28;20222;-62
2021/09/21 01:50:52;;;;;;;8.60;6.10;;;11.40;1.00;;;;;;5033392;28;20207;-62
2021/09/21 01:53:26;;;;;;;9.80;6.37;;;11.30;1.00;;;;;;5033415;28;20702;-61
2021/09/21 01:58:47;;;;;;;8.23;6.03;;;11.10;1.00;;;;;;5033270;28;20229;-61
2021/09/21 02:01:15;;;;;;;8.77;6.13;;;11.00;1.00;;;;;;5033539;28;20210;-62
2021/09/21 02:03:42;;;;;;;10.03;6.63;;;11.00;1.00;;;;;;5033185;28;20260;-62
2021/09/21 02:06:09;;;;;;;10.33;6.90;;;10.90;1.00;;;;;;5032449;28;20207;-61
2021/09/21 02:08:36;;;;;;;8.03;6.17;;;10.80;1.00;;;;;;5033340;28;20217;-62
2021/09/21 02:11:03;;;;;;;8.80;6.00;;;10.90;1.00;;;;;;5032958;28;20210;-61
2021/09/21 02:13:30;;;;;;;8.60;6.60;;;10.90;1.00;;;;;;5033102;28;20232;-62
2021/09/21 02:15:58;;;;;;;8.37;5.93;;;10.80;1.00;;;;;;5032618;28;20218;-62
2021/09/21 02:18:25;;;;;;;9.87;6.03;;;10.80;1.00;;;;;;5032501;28;20276;-62
2021/09/21 02:20:52;;;;;;;10.37;7.13;;;10.70;1.00;;;;;;5033039;28;20210;-62
2021/09/21 02:23:19;;;;;;;10.83;6.77;;;10.70;1.00;;;;;;5032886;28;20213;-62
2021/09/21 02:25:46;;;;;;;10.20;6.00;;;10.60;1.00;;;;;;5032527;28;20283;-62
2021/09/21 02:28:13;;;;;;;11.10;6.70;;;10.60;1.00;;;;;;5032617;28;20225;-62
2021/09/21 02:30:40;;;;;;;9.63;6.33;;;10.50;1.00;;;;;;5032631;28;20617;-62
2021/09/21 02:33:08;;;;;;;9.57;6.33;;;10.50;1.00;;;;;;5032437;28;20644;-62
2021/09/21 02:35:35;;;;;;;9.53;6.60;;;10.40;1.00;;;;;;5032449;28;20636;-62
2021/09/21 02:38:02;;;;;;;9.90;6.67;;;10.30;1.00;;;;;;5032526;28;20280;-62
2021/09/21 02:40:30;;;;;;;10.73;6.97;;;10.20;1.00;;;;;;5032438;28;20728;-62
2021/09/21 02:42:57;;;;;;;9.67;6.93;;;10.20;1.00;;;;;;5032894;28;20226;-62
2021/09/21 02:45:24;;;;;;;11.93;7.30;;;10.10;1.00;;;;;;5032562;28;20238;-62
2021/09/21 02:47:50;;;;;;;10.07;6.63;;;10.00;1.00;;;;;;5032265;28;20225;-61
2021/09/21 02:50:19;;;;;;;10.67;7.63;;;10.00;1.00;;;;;;5032400;28;20571;-62
2021/09/21 02:52:45;;;;;;;10.63;7.40;;;9.90;1.00;;;;;;5032779;28;20319;-61
2021/09/21 02:55:12;;;;;;;9.30;6.57;;;9.90;1.00;;;;;;5032066;28;20732;-61
2021/09/21 02:57:39;;;;;;;9.93;6.80;;;9.90;14.30;;;;;;5032213;28;20238;-61
2021/09/21 03:00:08;;;;;;;9.23;7.10;;;9.90;51.60;;;;;;5032061;28;20213;-62
2021/09/21 03:02:35;;;;;;;10.67;7.37;;;9.80;91.40;;;;;;5032520;28;20229;-61
2021/09/21 03:05:04;;;;;;;10.77;7.00;;;9.80;99.90;;;;;;5032458;28;20256;-61
2021/09/21 03:07:36;;;;;;;12.10;7.53;;;9.70;99.90;;;;;;5032206;28;20231;-61
2021/09/21 03:10:14;;;;;;;12.17;7.33;;;9.70;99.90;;;;;;5032227;28;20221;-61
2021/09/21 03:13:02;;;;;;;11.23;7.37;;;9.60;99.90;;;;;;5032041;28;20213;-64
2021/09/21 03:18:13;;;;;;;11.07;7.57;;;9.50;99.90;;;;;;5031821;28;20282;-61
2021/09/21 03:20:39;;;;;;;9.57;7.40;;;9.40;1.00;;;;;;5031951;28;20275;-61
2021/09/21 03:23:07;;;;;;;13.83;7.73;;;9.40;2.70;;;;;;5031192;28;20209;-61
2021/09/21 03:25:34;;;;;;;11.47;7.83;;;9.30;99.90;;;;;;5031816;28;20205;-61
2021/09/21 03:28:00;;;;;;;12.93;7.30;;;9.30;99.90;;;;;;5031801;28;20224;-61
2021/09/21 03:30:27;;;;;;;13.73;8.30;;;9.30;99.90;;;;;;5032026;28;20301;-61
2021/09/21 03:32:54;;;;;;;13.57;8.27;;;9.30;1.00;;;;;;5031716;28;20205;-61
2021/09/21 03:35:20;;;;;;;12.63;7.70;;;9.20;1.00;;;;;;5031491;28;20205;-62
2021/09/21 03:37:47;;;;;;;9.63;7.10;;;9.20;99.90;;;;;;5031469;28;20271;-61
2021/09/21 03:40:15;;;;;;;10.30;7.67;;;9.20;99.90;;;;;;5031978;28;20278;-62
2021/09/21 03:42:42;;;;;;;12.33;7.30;;;9.20;99.90;;;;;;5031807;28;20209;-61
2021/09/21 03:45:10;;;;;;;10.30;7.53;;;9.20;99.90;;;;;;5031568;28;20210;-61
2021/09/21 03:47:37;;;;;;;13.63;8.60;;;9.20;99.90;;;;;;5031663;28;20228;-61
2021/09/21 03:50:05;;;;;;;8.93;7.13;;;9.10;99.90;;;;;;5031480;28;20262;-61
2021/09/21 03:52:32;;;;;;;10.67;7.33;;;9.20;1.00;;;;;;5031959;28;20221;-62
2021/09/21 03:54:59;;;;;;;11.20;7.60;;;9.20;1.00;;;;;;5031333;28;20212;-61
2021/09/21 03:57:27;;;;;;;12.23;7.90;;;9.20;99.90;;;;;;5031431;28;20376;-61
2021/09/21 03:59:53;;;;;;;12.30;7.97;;;9.20;99.90;;;;;;5031560;28;20208;-61
2021/09/21 04:02:20;;;;;;;9.10;7.80;;;9.30;99.90;;;;;;5031503;28;20208;-62
2021/09/21 04:04:46;;;;;;;10.03;7.20;;;9.20;1.00;;;;;;5030860;28;20263;-61
2021/09/21 04:07:13;;;;;;;8.57;7.00;;;9.20;1.00;;;;;;5031662;28;20665;-62
2021/09/21 04:09:40;;;;;;;11.87;7.43;;;9.10;1.00;;;;;;5031563;28;20254;-62
2021/09/21 04:12:07;;;;;;;9.03;7.50;;;9.00;7.70;;;;;;5031502;28;20299;-62
2021/09/21 04:14:35;;;;;;;9.93;7.70;;;9.00;99.90;;;;;;5031296;28;20269;-61
2021/09/21 04:17:02;;;;;;;11.83;7.80;;;8.90;99.90;;;;;;5031333;28;20232;-62
2021/09/21 04:19:28;;;;;;;11.87;8.33;;;8.90;99.90;;;;;;5022237;28;20232;-62
2021/09/21 04:21:55;;;;;;;10.30;8.03;;;8.90;99.90;;;;;;5031410;28;20211;-62
2021/09/21 04:24:22;;;;;;;12.50;8.13;;;8.90;99.90;;;;;;5031198;28;20619;-61
2021/09/21 04:26:49;;;;;;;13.53;7.93;;;8.90;1.00;;;;;;5030815;28;20289;-61
2021/09/21 04:29:15;;;;;;;11.27;7.93;;;8.80;1.00;;;;;;5027201;28;20263;-61
2021/09/21 04:31:45;;;;;;;13.30;8.50;;;8.80;82.70;;;;;;5011910;28;20208;-61
2021/09/21 04:34:13;;;;;;;12.00;8.73;;;8.70;99.90;;;;;;5010920;28;20218;-61
2021/09/21 04:36:40;;;;;;;11.83;8.30;;;8.70;1.00;;;;;;5013861;28;20281;-61
2021/09/21 04:39:07;;;;;;;12.47;8.00;;;8.70;44.70;;;;;;5014787;28;20659;-61
2021/09/21 04:41:35;;;;;;;15.80;8.90;;;8.60;99.90;;;;;;5014363;28;20207;-60
2021/09/21 04:44:01;;;;;;;11.23;7.40;;;8.60;99.90;;;;;;5014643;28;20231;-61
2021/09/21 04:46:28;;;;;;;11.77;7.97;;;8.50;99.90;;;;;;5014120;28;20244;-60
2021/09/21 04:48:56;;;;;;;15.80;7.70;;;8.50;99.90;;;;;;5014455;28;20209;-60
2021/09/21 04:51:23;;;;;;;10.83;7.87;;;8.50;1.00;;;;;;5014148;28;20207;-61
2021/09/21 04:53:49;;;;;;;12.73;7.97;;;8.50;99.90;;;;;;5014500;28;20258;-61
2021/09/21 04:56:16;;;;;;;12.30;7.50;;;8.40;99.90;;;;;;5013884;28;20238;-60
2021/09/21 04:58:43;;;;;;;11.77;7.80;;;8.40;99.90;;;;;;5014411;28;20631;-62
2021/09/21 05:01:09;;;;;;;13.70;8.50;;;8.40;1.00;;;;;;5014198;28;20273;-56
2021/09/21 05:03:36;;;;;;;11.23;7.93;;;8.30;17.70;;;;;;5014665;28;20630;-57
2021/09/21 05:06:04;;;;;;;9.80;7.30;;;8.30;99.90;;;;;;5013959;28;20218;-57
2021/09/21 05:08:31;;;;;;;12.57;7.70;;;8.20;99.90;;;;;;5014982;28;20343;-62
2021/09/21 05:10:57;;;;;;;11.17;7.83;;;8.20;99.90;;;;;;5014438;28;20273;-62
2021/09/21 05:13:24;;;;;;;11.47;7.90;;;8.20;1.00;;;;;;5014291;28;20281;-58
2021/09/21 05:15:51;;;;;;;13.47;8.40;;;8.20;1.00;;;;;;5014844;28;20652;-60
2021/09/21 05:18:17;;;;;;;13.73;8.13;;;8.10;76.90;;;;;;5016616;28;20250;-60
2021/09/21 05:20:44;;;;;;;12.50;8.80;;;8.10;99.90;;;;;;5017318;28;20253;-61
2021/09/21 05:23:12;;;;;;;13.90;8.30;;;8.10;99.90;;;;;;5014813;28;20214;-59
2021/09/21 05:25:39;;;;;;;14.63;8.27;;;8.10;1.00;;;;;;5013905;28;20214;-59
2021/09/21 05:28:06;;;;;;;13.07;9.43;;;8.00;1.00;;;;;;5013727;28;20281;-64
2021/09/21 05:30:32;;;;;;;13.33;9.03;;;8.00;23.50;;;;;;5016185;28;20268;-64
2021/09/21 05:32:59;;;;;;;14.67;9.23;;;8.00;99.90;;;;;;5014869;28;20211;-62
2021/09/21 05:35:26;;;;;;;13.87;9.30;;;8.00;99.90;;;;;;5013428;28;20737;-62
2021/09/21 05:37:52;;;;;;;15.47;9.90;;;8.10;1.00;;;;;;5013584;28;20227;-62
2021/09/21 05:40:20;;;;;;;15.47;9.17;;;8.00;55.30;;;;;;5013661;28;20338;-63
2021/09/21 05:42:47;;;;;;;17.77;10.43;;;8.00;99.90;;;;;;5013403;28;20261;-62
2021/09/21 05:45:14;;;;;;;18.60;10.80;;;8.10;99.90;;;;;;5013215;28;20769;-62
2021/09/21 05:47:41;;;;;;;15.47;10.70;;;8.10;1.00;;;;;;5013618;28;20231;-64
2021/09/21 05:50:10;;;;;;;14.53;11.07;;;8.10;1.00;;;;;;5013655;28;20207;-63
2021/09/21 05:52:37;;;;;;;19.03;11.63;;;8.10;1.00;;;;;;5013449;28;20668;-62
2021/09/21 05:55:05;;;;;;;16.90;11.57;;;8.10;42.30;;;;;;5012847;28;20207;-63
2021/09/21 05:57:33;;;;;;;17.37;11.07;;;8.10;99.90;;;;;;5013278;28;20242;-64
2021/09/21 06:00:00;;;;;;;17.10;10.40;;;8.20;99.90;;;;;;5013404;28;20231;-62
2021/09/21 06:02:26;;;;;;;16.70;10.63;;;8.20;99.90;;;;;;5013695;28;20269;-61
2021/09/21 06:04:53;;;;;;;17.83;10.90;;;8.30;99.90;;;;;;5012838;28;20207;-62
2021/09/21 06:07:20;;;;;;;15.03;9.50;;;8.30;99.90;;;;;;5013084;28;20765;-60
2021/09/21 06:09:47;;;;;;;14.73;10.73;;;8.30;99.90;;;;;;5013039;28;20207;-64
2021/09/21 06:12:14;;;;;;;17.47;10.90;;;8.40;99.90;;;;;;5012905;28;20211;-65
2021/09/21 06:14:42;;;;;;;17.03;11.40;;;8.40;99.90;;;;;;5012917;28;20262;-64
2021/09/21 06:17:09;;;;;;;16.37;11.97;;;8.50;99.90;;;;;;5012964;28;20256;-65
2021/09/21 06:19:35;;;;;;;17.67;11.60;;;8.50;99.90;;;;;;5012929;28;20223;-64
2021/09/21 06:22:03;;;;;;;21.63;12.77;;;8.60;99.90;;;;;;5012969;28;20206;-65
2021/09/21 06:24:29;;;;;;;21.13;13.13;;;8.70;99.90;;;;;;5012867;28;20211;-65
2021/09/21 06:26:56;;;;;;;14.20;10.03;;;8.80;99.90;;;;;;5012523;28;20227;-67
2021/09/21 06:29:23;;;;;;;20.53;13.23;;;8.90;99.90;;;;;;5013046;28;20204;-66
2021/09/21 06:31:51;;;;;;;17.90;12.17;;;9.40;1.00;;;;;;5013633;28;20215;-64
2021/09/21 06:34:17;;;;;;;17.23;10.70;;;9.80;10.40;;;;;;5032375;28;20214;-65
2021/09/21 06:36:44;;;;;;;17.90;10.03;;;10.20;40.00;;;;;;5031418;28;20643;-64
2021/09/21 06:39:11;;;;;;;15.70;10.00;;;10.50;4.00;;;;;;5032441;28;20757;-65
2021/09/21 06:41:38;;;;;;;15.90;10.07;;;10.70;99.90;;;;;;5032502;28;20590;-64
2021/09/21 06:44:04;;;;;;;14.10;10.10;;;10.90;1.20;;;;;;5032307;28;20264;-65
2021/09/21 06:46:31;;;;;;;15.37;9.87;;;11.20;99.90;;;;;;5032176;28;20903;-64
2021/09/21 06:48:59;;;;;;;13.63;9.83;;;11.20;1.00;;;;;;5031877;28;20829;-62
2021/09/21 06:51:26;;;;;;;12.70;9.57;;;11.20;99.90;;;;;;5032435;28;20218;-64
2021/09/21 06:53:52;;;;;;;13.83;9.40;;;10.80;99.90;;;;;;5032171;28;20599;-63
2021/09/21 06:56:21;;;;;;;13.10;9.40;;;10.70;1.00;;;;;;5031671;28;20218;-63
2021/09/21 06:58:48;;;;;;;13.23;9.03;;;10.70;99.90;;;;;;5023163;28;20360;-66
2021/09/21 07:01:15;;;;;;;17.27;10.00;;;10.60;99.90;;;;;;5029523;28;20249;-67
2021/09/21 07:03:41;;;;;;;17.60;9.90;;;10.50;99.90;;;;;;5016274;28;20214;-67
2021/09/21 07:06:10;;;;;;;14.13;9.67;;;10.30;1.00;;;;;;5010944;28;20238;-63
2021/09/21 07:08:36;;;;;;;10.90;9.13;;;10.40;99.90;;;;;;5011924;28;20203;-65
2021/09/21 07:11:03;;;;;;;12.50;8.60;;;10.40;99.90;;;;;;5011897;28;20284;-65
2021/09/21 07:13:30;;;;;;;11.27;7.93;;;10.40;1.00;;;;;;5012008;28;20712;-63
2021/09/21 07:15:57;;;;;;;13.40;9.47;;;10.50;1.00;;;;;;5011800;28;20202;-66
2021/09/21 07:18:23;;;;;;;11.63;8.23;;;10.50;1.00;;;;;;5011625;28;20639;-64
2021/09/21 07:20:50;;;;;;;14.30;8.37;;;10.60;99.90;;;;;;5011842;28;20630;-63
2021/09/21 07:23:18;;;;;;;10.47;7.77;;;10.70;99.90;;;;;;5023641;28;20609;-63
2021/09/21 07:25:45;;;;;;;10.17;7.13;;;10.80;99.90;;;;;;5030369;28;20211;-64
2021/09/21 07:28:11;;;;;;;12.77;7.40;;;10.90;99.90;;;;;;5031005;28;20230;-67
2021/09/21 07:30:39;;;;;;;12.70;8.23;;;11.00;99.90;;;;;;5032329;28;20825;-66
2021/09/21 07:33:06;;;;;;;12.27;7.43;;;11.10;52.00;;;;;;5031020;28;20202;-64
2021/09/21 07:35:33;;;;;;;12.27;6.60;;;11.30;1.00;;;;;;5031091;28;20217;-63
2021/09/21 07:38:00;;;;;;;13.00;7.10;;;11.40;99.90;;;;;;5031460;28;20722;-65
2021/09/21 07:40:30;;;;;;;10.70;6.50;;;11.50;99.90;;;;;;5031607;28;20232;-66
2021/09/21 07:42:58;;;;;;;11.13;6.87;;;11.70;99.90;;;;;;5031570;28;20216;-64
2021/09/21 07:45:25;;;;;;;11.90;6.43;;;11.80;99.90;;;;;;5030878;28;20233;-64
2021/09/21 07:47:52;;;;;;;9.23;6.60;;;12.00;99.90;;;;;;5030740;28;20292;-63
2021/09/21 07:50:19;;;;;;;10.63;6.60;;;12.20;99.90;;;;;;5031137;28;20642;-63
2021/09/21 07:52:46;;;;;;;9.97;7.00;;;12.40;89.30;;;;;;5030860;28;20210;-63
2021/09/21 07:55:15;;;;;;;9.67;5.50;;;12.50;37.20;;;;;;5030748;28;20212;-60
2021/09/21 07:57:43;;;;;;;10.33;6.87;;;12.60;1.00;;;;;;5030669;28;20748;-65
2021/09/21 08:00:13;;;;;;;8.23;5.67;;;12.70;1.00;;;;;;5030661;28;20235;-62
2021/09/21 08:02:40;;;;;;;8.57;6.23;;;12.70;1.00;;;;;;5031184;28;20562;-64
2021/09/21 08:05:08;;;;;;;10.97;6.73;;;12.80;1.00;;;;;;5030753;28;20215;-63
2021/09/21 08:07:35;;;;;;;14.43;7.67;;;12.90;1.00;;;;;;5027961;28;20230;-65
2021/09/21 08:10:03;;;;;;;13.30;8.27;;;13.00;1.00;;;;;;5031541;28;20208;-63
2021/09/21 08:12:30;;;;;;;10.50;7.63;;;13.10;1.00;;;;;;5014958;28;20216;-63
2021/09/21 08:14:58;;;;;;;14.37;8.60;;;13.20;1.00;;;;;;5014406;28;20224;-63
2021/09/21 08:17:27;;;;;;;12.47;7.87;;;13.30;1.00;;;;;;5014721;28;20227;-64
2021/09/21 08:19:55;;;;;;;12.10;8.20;;;13.30;1.00;;;;;;5014305;28;20224;-64
2021/09/21 08:22:22;;;;;;;11.83;7.80;;;13.40;1.00;;;;;;5014298;28;20208;-64
2021/09/21 08:24:49;;;;;;;9.50;6.83;;;13.30;1.00;;;;;;5014127;28;20218;-64
2021/09/21 08:27:16;;;;;;;9.27;6.90;;;13.30;1.00;;;;;;5014439;28;20314;-64
2021/09/21 08:29:43;;;;;;;11.00;7.03;;;13.50;1.00;;;;;;5014460;28;20212;-65
2021/09/21 08:32:11;;;;;;;13.10;7.07;;;13.60;1.00;;;;;;5014413;28;20677;-59
2021/09/21 08:34:37;;;;;;;16.27;8.53;;;13.70;1.00;;;;;;5014449;28;20207;-67
2021/09/21 08:37:04;;;;;;;12.17;8.17;;;13.70;1.00;;;;;;5014310;28;20261;-67
2021/09/21 08:39:31;;;;;;;14.77;8.83;;;13.70;1.00;;;;;;5014094;28;20229;-69
2021/09/21 08:41:57;;;;;;;14.27;9.60;;;13.70;1.00;;;;;;5013999;28;20572;-69
2021/09/21 08:44:24;;;;;;;15.07;8.73;;;13.70;1.00;;;;;;5014431;28;20222;-66
2021/09/21 08:46:52;;;;;;;13.50;8.77;;;13.80;1.00;;;;;;5014077;28;20234;-64
2021/09/21 08:49:21;;;;;;;13.77;8.90;;;13.90;1.00;;;;;;5013881;28;20374;-63
2021/09/21 08:51:48;;;;;;;13.70;7.93;;;13.90;1.00;;;;;;5014252;28;20218;-63
2021/09/21 08:54:14;;;;;;;13.63;7.13;;;14.10;1.00;;;;;;5013980;28;20214;-62
2021/09/21 08:56:43;;;;;;;17.03;7.43;;;14.20;1.00;;;;;;5013958;28;20234;-63
2021/09/21 08:59:11;;;;;;;13.97;7.30;;;14.40;1.00;;;;;;5014194;28;20214;-64
2021/09/21 09:01:39;;;;;;;11.90;6.93;;;14.50;1.00;;;;;;5014751;28;20211;-64
2021/09/21 09:04:07;;;;;;;10.93;6.73;;;14.50;1.00;;;;;;5014503;28;20241;-63
2021/09/21 09:06:43;;;;;;;14.50;7.27;;;14.60;1.00;;;;;;5013587;28;20230;-63
2021/09/21 09:09:13;;;;;;;8.47;5.40;;;14.70;99.90;;;;;;5013844;28;20213;-60
2021/09/21 09:11:40;;;;;;;7.00;3.63;;;14.60;99.90;;;;;;5014226;28;20303;-61
2021/09/21 09:14:06;;;;;;;6.43;4.30;;;14.70;99.90;;;;;;5014342;28;20590;-64
2021/09/21 09:16:34;;;;;;;6.30;4.03;;;14.90;99.90;;;;;;5014118;28;20939;-63
2021/09/21 09:19:02;;;;;;;6.37;4.03;;;15.00;99.90;;;;;;5013755;28;20679;-62
2021/09/21 09:21:32;;;;;;;5.97;4.33;;;15.00;99.90;;;;;;5012687;28;20665;-62
2021/09/21 09:24:01;;;;;;;10.50;6.40;;;15.10;99.90;;;;;;5014600;28;20210;-62
2021/09/21 09:26:31;;;;;;;9.07;6.60;;;15.10;99.90;;;;;;5014186;28;20223;-64
2021/09/21 09:28:57;;;;;;;15.17;6.43;;;15.10;99.90;;;;;;5013298;28;20624;-63
2021/09/21 09:31:26;;;;;;;11.17;6.50;;;15.10;99.90;;;;;;5013388;28;20249;-63
2021/09/21 09:34:08;;;;;;;14.13;7.27;;;15.20;99.90;;;;;;5013057;28;20210;-58
2021/09/21 09:36:44;;;;;;;10.33;5.90;;;15.30;99.90;;;;;;5013162;28;20223;-61
2021/09/21 09:39:12;;;;;;;7.90;5.80;;;15.30;99.90;;;;;;5013105;28;20238;-62
2021/09/21 09:41:40;;;;;;;9.50;5.93;;;15.30;99.90;;;;;;5013287;28;20253;-64
2021/09/21 09:44:08;;;;;;;7.63;5.23;;;15.50;99.90;;;;;;5013047;28;20214;-64
2021/09/21 09:46:45;;;;;;;8.70;5.03;;;15.70;99.90;;;;;;5012681;28;20281;-64
2021/09/21 09:49:11;;;;;;;7.47;4.97;;;15.90;99.90;;;;;;5013204;28;20211;-64
2021/09/21 09:51:45;;;;;;;7.23;4.83;;;16.00;99.90;;;;;;5012949;28;20211;-63
2021/09/21 09:54:14;;;;;;;7.57;4.40;;;16.00;99.90;;;;;;5013078;28;20211;-63
2021/09/21 09:56:41;;;;;;;7.43;5.30;;;16.20;99.90;;;;;;5012850;28;20274;-64
2021/09/21 09:59:09;;;;;;;7.07;4.70;;;16.20;99.90;;;;;;5032386;28;20217;-65
2021/09/21 10:01:36;;;;;;;7.80;3.93;;;16.10;99.90;;;;;;5032722;28;20222;-59
2021/09/21 10:04:03;;;;;;;9.43;4.20;;;15.90;99.90;;;;;;5032722;28;20206;-63
2021/09/21 10:06:30;;;;;;;7.97;4.70;;;15.80;99.90;;;;;;5032280;28;20226;-62
2021/09/21 10:08:57;;;;;;;8.47;5.00;;;15.60;99.90;;;;;;5032086;28;20667;-63
2021/09/21 10:11:26;;;;;;;9.13;4.30;;;15.80;99.90;;;;;;5032208;28;20206;-64
2021/09/21 10:13:54;;;;;;;11.27;5.30;;;16.00;99.90;;;;;;5032175;28;20210;-65
2021/09/21 10:16:21;;;;;;;11.67;5.00;;;16.20;99.90;;;;;;5032694;28;20241;-67
2021/09/21 10:18:54;;;;;;;8.10;5.80;;;16.10;99.90;;;;;;5032970;28;20213;-63
2021/09/21 10:21:31;;;;;;;9.90;4.83;;;16.00;99.90;;;;;;5032492;28;20230;-65
2021/09/21 10:24:02;;;;;;;6.90;5.10;;;16.00;99.90;;;;;;5032050;28;20589;-64
2021/09/21 10:26:31;;;;;;;8.03;5.27;;;16.00;99.90;;;;;;5032177;28;20237;-60
2021/09/21 10:28:59;;;;;;;7.77;4.83;;;16.00;99.90;;;;;;5032149;28;20268;-63
2021/09/21 10:31:26;;;;;;;7.07;5.37;;;15.90;99.90;;;;;;5032492;28;20298;-63
2021/09/21 10:33:53;;;;;;;9.93;4.67;;;16.10;99.90;;;;;;5031989;28;20257;-65
2021/09/21 10:36:22;;;;;;;5.87;4.17;;;16.30;99.90;;;;;;5032711;28;20210;-65
2021/09/21 10:38:53;;;;;;;8.03;4.40;;;16.50;99.90;;;;;;5034248;28;20240;-63
2021/09/21 10:41:20;;;;;;;6.43;4.13;;;16.60;99.90;;;;;;5034823;28;20237;-62
2021/09/21 10:43:59;;;;;;;8.20;3.77;;;16.80;99.90;;;;;;5033591;28;20670;-63
2021/09/21 10:46:26;;;;;;;7.37;3.80;;;17.00;99.90;;;;;;5033962;28;20603;-65
2021/09/21 10:48:59;;;;;;;5.90;3.90;;;17.20;99.90;;;;;;5034377;28;20210;-64
2021/09/21 10:51:25;;;;;;;4.53;3.37;;;17.00;99.90;;;;;;5034409;28;20586;-64
2021/09/21 10:54:00;;;;;;;3.80;2.80;;;17.10;99.90;;;;;;5034000;28;20206;-63
2021/09/21 10:56:27;;;;;;;4.23;2.80;;;17.10;99.90;;;;;;5033162;28;20604;-63
2021/09/21 10:58:57;;;;;;;5.43;2.80;;;17.10;99.90;;;;;;5031396;28;20210;-62
2021/09/21 11:01:24;;;;;;;6.40;3.97;;;17.10;99.90;;;;;;5031546;28;20222;-62
2021/09/21 11:03:51;;;;;;;5.30;3.10;;;17.20;99.90;;;;;;5031737;28;20206;-64
2021/09/21 11:06:18;;;;;;;3.87;2.50;;;17.40;99.90;;;;;;5031438;28;20671;-65
2021/09/21 11:08:46;;;;;;;3.67;2.30;;;17.40;99.90;;;;;;5031483;28;20206;-65
2021/09/21 11:11:12;;;;;;;3.97;2.40;;;17.30;99.90;;;;;;5032375;28;20309;-65
2021/09/21 11:13:41;;;;;;;4.13;2.67;;;17.50;99.90;;;;;;5031667;28;20206;-64
2021/09/21 11:16:12;;;;;;;3.40;2.30;;;17.60;99.90;;;;;;5030694;28;20253;-64
2021/09/21 11:18:42;;;;;;;3.03;2.40;;;17.70;99.90;;;;;;5031424;28;20206;-65
2021/09/21 11:21:10;;;;;;;3.17;2.10;;;17.60;99.90;;;;;;5031273;28;20234;-65
2021/09/21 11:23:40;;;;;;;2.60;2.03;;;17.80;99.90;;;;;;5031801;28;20214;-64
2021/09/21 11:26:09;;;;;;;4.90;2.40;;;17.90;99.90;;;;;;5030795;28;20638;-61
2021/09/21 11:28:38;;;;;;;4.47;2.23;;;17.60;99.90;;;;;;5031272;28;20206;-63
2021/09/21 11:31:06;;;;;;;2.43;2.10;;;17.30;99.90;;;;;;5031499;28;20210;-63
2021/09/21 11:33:36;;;;;;;4.47;2.40;;;17.20;99.90;;;;;;5015244;28;20215;-67
2021/09/21 11:36:06;;;;;;;4.87;2.40;;;17.40;99.90;;;;;;5011450;28;20225;-67
2021/09/21 11:38:36;;;;;;;5.10;2.60;;;17.50;99.90;;;;;;5010935;28;20679;-68
2021/09/21 11:41:03;;;;;;;3.10;2.60;;;17.40;99.90;;;;;;5011153;28;20226;-67
2021/09/21 11:43:31;;;;;;;3.93;2.13;;;17.60;99.90;;;;;;5011589;28;20214;-66
2021/09/21 11:45:58;;;;;;;5.10;2.43;;;17.70;99.90;;;;;;5031696;28;20348;-67
2021/09/21 11:48:25;;;;;;;6.33;2.57;;;17.90;99.90;;;;;;5034978;28;20230;-62
2021/09/21 11:50:53;;;;;;;4.20;2.53;;;18.00;99.90;;;;;;5034781;28;20704;-62
2021/09/21 11:53:22;;;;;;;4.20;2.70;;;18.10;99.90;;;;;;5035176;28;20210;-62
2021/09/21 11:55:50;;;;;;;4.70;2.30;;;18.00;99.90;;;;;;5034772;28;20198;-62
2021/09/21 11:58:18;;;;;;;3.70;2.47;;;17.90;99.90;;;;;;5034756;28;20288;-62
2021/09/21 12:00:46;;;;;;;4.70;2.57;;;18.00;99.90;;;;;;5034558;28;20233;-61
2021/09/21 12:03:15;;;;;;;4.47;2.20;;;17.70;99.90;;;;;;5035021;28;20217;-63
2021/09/21 12:05:43;;;;;;;3.90;2.83;;;17.60;99.90;;;;;;5034376;28;20279;-62
2021/09/21 12:08:13;;;;;;;8.87;2.90;;;17.50;99.90;;;;;;5034281;28;20725;-62
2021/09/21 12:10:45;;;;;;;8.83;3.90;;;17.40;99.90;;;;;;5035026;28;20199;-62
2021/09/21 12:13:15;;;;;;;7.37;3.03;;;17.50;99.90;;;;;;5034758;28;20206;-62
2021/09/21 12:15:43;;;;;;;9.73;5.33;;;17.60;99.90;;;;;;5034418;28;20630;-62
2021/09/21 12:18:13;;;;;;;4.20;2.73;;;17.70;99.90;;;;;;5034107;28;20236;-62
2021/09/21 12:20:41;;;;;;;8.50;2.17;;;17.80;99.90;;;;;;5034546;28;20229;-62
2021/09/21 12:23:11;;;;;;;3.17;2.40;;;18.00;99.90;;;;;;5034715;28;20214;-62
2021/09/21 12:25:42;;;;;;;5.53;2.40;;;18.00;99.90;;;;;;5034322;28;20202;-62
2021/09/21 12:28:10;;;;;;;4.43;2.40;;;18.10;99.90;;;;;;5034043;28;20241;-62
2021/09/21 12:30:41;;;;;;;4.90;2.43;;;18.30;99.90;;;;;;5034433;28;20210;-62
2021/09/21 12:33:10;;;;;;;3.27;2.40;;;18.30;99.90;;;;;;5034336;28;20202;-63
2021/09/21 12:35:38;;;;;;;7.10;2.90;;;18.20;99.90;;;;;;5034100;28;20206;-61
2021/09/21 12:38:08;;;;;;;3.10;2.60;;;18.00;99.90;;;;;;5034022;28;20234;-62
2021/09/21 12:40:35;;;;;;;5.27;3.20;;;18.20;99.90;;;;;;5034330;28;20229;-63
2021/09/21 12:43:05;;;;;;;4.87;3.07;;;18.40;99.90;;;;;;5034217;28;20257;-62
2021/09/21 12:45:33;;;;;;;5.37;3.10;;;18.00;99.90;;;;;;5033948;28;20206;-62
2021/09/21 12:48:04;;;;;;;6.07;3.30;;;17.80;99.90;;;;;;5033892;28;20788;-62
2021/09/21 12:50:31;;;;;;;4.67;3.10;;;17.80;99.90;;;;;;5034288;28;20290;-63
2021/09/21 12:53:00;;;;;;;4.40;3.00;;;18.00;99.90;;;;;;5034059;28;20245;-62
2021/09/21 12:55:32;;;;;;;6.67;3.30;;;18.10;99.90;;;;;;5032939;28;20231;-62